sensor_id;sensor_type;location;lat;lon;timestamp;temperature;humidity
4081;DHT22;2055;50.074;8.436;2023-03-04T00:02:11;1.00;99.90
4081;DHT22;2055;50.074;8.436;2023-03-04T00:04:36;1.10;99.90
4081;DHT22;2055;50.074;8.436;2023-03-04T00:07:02;1.10;99.90
4081;DHT22;2055;50.074;8.436;2023-03-04T00:09:27;1.10;99.90
4081;DHT22;2055;50.074;8.436;2023-03-04T00:11:53;1.10;99.90
4081;DHT22;2055;50.074;8.436;2023-03-04T00:14:19;1.00;99.90
4081;DHT22;2055;50.074;8.436;2023-03-04T00:16:44;0.90;99.90
4081;DHT22;2055;50.074;8.436;2023-03-04T00:19:10;0.90;99.90
4081;DHT22;2055;50.074;8.436;2023-03-04T00:21:36;0.70;99.90
4081;DHT22;2055;50.074;8.436;2023-03-04T00:24:01;0.60;99.90
4081;DHT22;2055;50.074;8.436;2023-03-04T00:26:27;0.40;99.90
4081;DHT22;2055;50.074;8.436;2023-03-04T00:28:52;0.20;99.90
4081;DHT22;2055;50.074;8.436;2023-03-04T00:31:18;0.10;99.90
4081;DHT22;2055;50.074;8.436;2023-03-04T00:33:43;0.00;99.90
4081;DHT22;2055;50.074;8.436;2023-03-04T00:36:09;0.00;99.90
4081;DHT22;2055;50.074;8.436;2023-03-04T00:38:35;0.00;99.90
4081;DHT22;2055;50.074;8.436;2023-03-04T00:41:01;-0.10;99.90
4081;DHT22;2055;50.074;8.436;2023-03-04T00:43:26;0.30;99.90
4081;DHT22;2055;50.074;8.436;2023-03-04T00:45:52;0.20;99.90
4081;DHT22;2055;50.074;8.436;2023-03-04T00:48:17;0.20;99.90
4081;DHT22;2055;50.074;8.436;2023-03-04T00:50:43;0.10;99.90
4081;DHT22;2055;50.074;8.436;2023-03-04T00:53:09;0.00;99.90
4081;DHT22;2055;50.074;8.436;2023-03-04T00:55:35;-0.20;99.90
4081;DHT22;2055;50.074;8.436;2023-03-04T00:58:01;-0.30;99.90
4081;DHT22;2055;50.074;8.436;2023-03-04T01:00:27;-0.40;99.90
4081;DHT22;2055;50.074;8.436;2023-03-04T01:02:52;-0.40;99.90
4081;DHT22;2055;50.074;8.436;2023-03-04T01:05:18;-0.60;99.90
4081;DHT22;2055;50.074;8.436;2023-03-04T01:07:43;-0.60;99.90
4081;DHT22;2055;50.074;8.436;2023-03-04T01:10:11;-0.70;99.90
4081;DHT22;2055;50.074;8.436;2023-03-04T01:12:37;-0.70;99.90
4081;DHT22;2055;50.074;8.436;2023-03-04T01:15:04;-0.80;99.90
4081;DHT22;2055;50.074;8.436;2023-03-04T01:17:30;-0.70;99.90
4081;DHT22;2055;50.074;8.436;2023-03-04T01:19:56;-0.60;99.90
4081;DHT22;2055;50.074;8.436;2023-03-04T01:22:22;-0.60;99.90
4081;DHT22;2055;50.074;8.436;2023-03-04T01:24:48;-0.50;99.90
4081;DHT22;2055;50.074;8.436;2023-03-04T01:27:13;-0.50;99.90
4081;DHT22;2055;50.074;8.436;2023-03-04T01:29:39;-0.50;99.90
4081;DHT22;2055;50.074;8.436;2023-03-04T01:32:04;-0.70;99.90
4081;DHT22;2055;50.074;8.436;2023-03-04T01:34:30;-0.60;99.90
4081;DHT22;2055;50.074;8.436;2023-03-04T01:36:55;-0.40;99.90
4081;DHT22;2055;50.074;8.436;2023-03-04T01:39:21;0.10;99.90
4081;DHT22;2055;50.074;8.436;2023-03-04T01:41:46;0.40;99.90
4081;DHT22;2055;50.074;8.436;2023-03-04T01:44:12;0.40;99.90
4081;DHT22;2055;50.074;8.436;2023-03-04T01:46:41;0.40;99.90
4081;DHT22;2055;50.074;8.436;2023-03-04T01:49:10;0.50;99.90
4081;DHT22;2055;50.074;8.436;2023-03-04T01:51:37;0.40;99.90
4081;DHT22;2055;50.074;8.436;2023-03-04T01:54:03;0.30;99.90
4081;DHT22;2055;50.074;8.436;2023-03-04T01:56:34;0.50;99.90
4081;DHT22;2055;50.074;8.436;2023-03-04T01:59:14;0.20;99.90
4081;DHT22;2055;50.074;8.436;2023-03-04T02:02:01;0.20;99.90
4081;DHT22;2055;50.074;8.436;2023-03-04T02:04:32;0.20;99.90
4081;DHT22;2055;50.074;8.436;2023-03-04T02:07:00;0.00;99.90
4081;DHT22;2055;50.074;8.436;2023-03-04T02:09:27;0.00;99.90
4081;DHT22;2055;50.074;8.436;2023-03-04T02:11:53;0.10;99.90
4081;DHT22;2055;50.074;8.436;2023-03-04T02:14:19;0.10;99.90
4081;DHT22;2055;50.074;8.436;2023-03-04T02:16:47;-0.10;99.90
4081;DHT22;2055;50.074;8.436;2023-03-04T02:21:43;-0.50;99.90
4081;DHT22;2055;50.074;8.436;2023-03-04T02:24:14;-0.70;99.90
4081;DHT22;2055;50.074;8.436;2023-03-04T02:26:42;-0.70;99.90
4081;DHT22;2055;50.074;8.436;2023-03-04T02:29:10;-0.70;99.90
4081;DHT22;2055;50.074;8.436;2023-03-04T02:31:39;-0.80;99.90
4081;DHT22;2055;50.074;8.436;2023-03-04T02:34:16;-0.90;99.90
4081;DHT22;2055;50.074;8.436;2023-03-04T02:36:44;-1.00;99.90
4081;DHT22;2055;50.074;8.436;2023-03-04T02:39:19;-1.00;99.90
4081;DHT22;2055;50.074;8.436;2023-03-04T02:41:46;-1.00;99.90
4081;DHT22;2055;50.074;8.436;2023-03-04T02:44:24;-1.00;99.90
4081;DHT22;2055;50.074;8.436;2023-03-04T02:46:50;-1.00;99.90
4081;DHT22;2055;50.074;8.436;2023-03-04T02:49:17;-1.00;99.90
4081;DHT22;2055;50.074;8.436;2023-03-04T02:51:43;-1.10;99.90
4081;DHT22;2055;50.074;8.436;2023-03-04T02:54:17;-1.20;99.90
4081;DHT22;2055;50.074;8.436;2023-03-04T02:56:52;-1.10;99.90
4081;DHT22;2055;50.074;8.436;2023-03-04T02:59:18;-1.10;99.90
4081;DHT22;2055;50.074;8.436;2023-03-04T03:01:45;-1.10;99.90
4081;DHT22;2055;50.074;8.436;2023-03-04T03:04:10;-1.10;99.90
4081;DHT22;2055;50.074;8.436;2023-03-04T03:06:37;-1.00;99.90
4081;DHT22;2055;50.074;8.436;2023-03-04T03:09:03;-0.90;99.90
4081;DHT22;2055;50.074;8.436;2023-03-04T03:11:28;-0.60;99.90
4081;DHT22;2055;50.074;8.436;2023-03-04T03:13:54;-0.60;99.90
4081;DHT22;2055;50.074;8.436;2023-03-04T03:16:19;-0.40;99.90
4081;DHT22;2055;50.074;8.436;2023-03-04T03:18:45;-0.30;99.90
4081;DHT22;2055;50.074;8.436;2023-03-04T03:21:10;-0.10;99.90
4081;DHT22;2055;50.074;8.436;2023-03-04T03:23:36;0.20;99.90
4081;DHT22;2055;50.074;8.436;2023-03-04T03:26:02;0.10;99.90
4081;DHT22;2055;50.074;8.436;2023-03-04T03:28:27;0.10;99.90
4081;DHT22;2055;50.074;8.436;2023-03-04T03:30:53;0.10;99.90
4081;DHT22;2055;50.074;8.436;2023-03-04T03:33:19;0.20;99.90
4081;DHT22;2055;50.074;8.436;2023-03-04T03:35:44;0.50;99.90
4081;DHT22;2055;50.074;8.436;2023-03-04T03:38:10;0.40;99.90
4081;DHT22;2055;50.074;8.436;2023-03-04T03:40:35;0.50;99.90
4081;DHT22;2055;50.074;8.436;2023-03-04T03:43:01;0.60;99.90
4081;DHT22;2055;50.074;8.436;2023-03-04T03:45:26;0.70;99.90
4081;DHT22;2055;50.074;8.436;2023-03-04T03:47:52;0.80;99.90
4081;DHT22;2055;50.074;8.436;2023-03-04T03:50:17;0.90;99.90
4081;DHT22;2055;50.074;8.436;2023-03-04T03:52:43;1.10;99.90
4081;DHT22;2055;50.074;8.436;2023-03-04T03:55:09;1.30;99.90
4081;DHT22;2055;50.074;8.436;2023-03-04T03:57:34;1.30;99.90
4081;DHT22;2055;50.074;8.436;2023-03-04T04:00:00;1.60;99.90
4081;DHT22;2055;50.074;8.436;2023-03-04T04:02:26;1.30;99.90
4081;DHT22;2055;50.074;8.436;2023-03-04T04:04:51;1.30;99.90
4081;DHT22;2055;50.074;8.436;2023-03-04T04:07:17;1.30;99.90
4081;DHT22;2055;50.074;8.436;2023-03-04T04:09:43;1.30;99.90
4081;DHT22;2055;50.074;8.436;2023-03-04T04:12:12;1.50;99.90
4081;DHT22;2055;50.074;8.436;2023-03-04T04:14:37;1.60;99.90
4081;DHT22;2055;50.074;8.436;2023-03-04T04:17:03;1.50;99.90
4081;DHT22;2055;50.074;8.436;2023-03-04T04:19:28;1.60;99.90
4081;DHT22;2055;50.074;8.436;2023-03-04T04:21:54;1.70;99.90
4081;DHT22;2055;50.074;8.436;2023-03-04T04:24:19;1.90;99.90
4081;DHT22;2055;50.074;8.436;2023-03-04T04:26:45;2.00;99.90
4081;DHT22;2055;50.074;8.436;2023-03-04T04:29:12;2.00;99.90
4081;DHT22;2055;50.074;8.436;2023-03-04T04:31:38;2.10;99.90
4081;DHT22;2055;50.074;8.436;2023-03-04T04:34:04;2.10;99.90
4081;DHT22;2055;50.074;8.436;2023-03-04T04:36:30;2.60;99.90
4081;DHT22;2055;50.074;8.436;2023-03-04T04:38:55;2.30;99.90
4081;DHT22;2055;50.074;8.436;2023-03-04T04:41:25;2.30;99.90
4081;DHT22;2055;50.074;8.436;2023-03-04T04:43:51;2.20;99.90
4081;DHT22;2055;50.074;8.436;2023-03-04T04:46:16;2.20;99.90
4081;DHT22;2055;50.074;8.436;2023-03-04T04:48:42;2.20;99.90
4081;DHT22;2055;50.074;8.436;2023-03-04T04:51:08;2.20;99.90
4081;DHT22;2055;50.074;8.436;2023-03-04T04:53:34;2.20;99.90
4081;DHT22;2055;50.074;8.436;2023-03-04T04:55:59;2.20;99.90
4081;DHT22;2055;50.074;8.436;2023-03-04T04:58:25;2.30;99.90
4081;DHT22;2055;50.074;8.436;2023-03-04T05:00:51;2.30;99.90
4081;DHT22;2055;50.074;8.436;2023-03-04T05:03:16;2.40;99.90
4081;DHT22;2055;50.074;8.436;2023-03-04T05:05:42;2.30;99.90
4081;DHT22;2055;50.074;8.436;2023-03-04T05:08:07;2.40;99.90
4081;DHT22;2055;50.074;8.436;2023-03-04T05:10:33;2.40;99.90
4081;DHT22;2055;50.074;8.436;2023-03-04T05:12:58;2.40;99.90
4081;DHT22;2055;50.074;8.436;2023-03-04T05:15:24;2.30;99.90
4081;DHT22;2055;50.074;8.436;2023-03-04T05:17:49;2.40;99.90
4081;DHT22;2055;50.074;8.436;2023-03-04T05:20:15;2.40;99.90
4081;DHT22;2055;50.074;8.436;2023-03-04T05:22:41;2.40;99.90
4081;DHT22;2055;50.074;8.436;2023-03-04T05:25:06;2.50;99.90
4081;DHT22;2055;50.074;8.436;2023-03-04T05:27:32;2.50;99.90
4081;DHT22;2055;50.074;8.436;2023-03-04T05:29:58;2.50;99.90
4081;DHT22;2055;50.074;8.436;2023-03-04T05:32:26;2.60;99.90
4081;DHT22;2055;50.074;8.436;2023-03-04T05:34:52;2.60;99.90
4081;DHT22;2055;50.074;8.436;2023-03-04T05:37:18;2.60;99.90
4081;DHT22;2055;50.074;8.436;2023-03-04T05:39:43;2.60;99.90
4081;DHT22;2055;50.074;8.436;2023-03-04T05:42:09;2.60;99.90
4081;DHT22;2055;50.074;8.436;2023-03-04T05:44:34;2.60;99.90
4081;DHT22;2055;50.074;8.436;2023-03-04T05:47:00;2.60;99.90
4081;DHT22;2055;50.074;8.436;2023-03-04T05:49:25;2.60;99.90
4081;DHT22;2055;50.074;8.436;2023-03-04T05:51:51;2.60;99.90
4081;DHT22;2055;50.074;8.436;2023-03-04T05:54:16;2.60;99.90
4081;DHT22;2055;50.074;8.436;2023-03-04T05:56:43;2.70;99.90
4081;DHT22;2055;50.074;8.436;2023-03-04T05:59:09;2.70;99.90
4081;DHT22;2055;50.074;8.436;2023-03-04T06:01:34;2.70;99.90
4081;DHT22;2055;50.074;8.436;2023-03-04T06:03:59;2.70;99.90
4081;DHT22;2055;50.074;8.436;2023-03-04T06:06:25;2.70;99.90
4081;DHT22;2055;50.074;8.436;2023-03-04T06:08:50;2.80;99.90
4081;DHT22;2055;50.074;8.436;2023-03-04T06:11:16;2.90;99.90
4081;DHT22;2055;50.074;8.436;2023-03-04T06:13:41;2.70;99.90
4081;DHT22;2055;50.074;8.436;2023-03-04T06:16:08;2.70;99.90
4081;DHT22;2055;50.074;8.436;2023-03-04T06:18:34;2.80;99.90
4081;DHT22;2055;50.074;8.436;2023-03-04T06:21:01;2.80;99.90
4081;DHT22;2055;50.074;8.436;2023-03-04T06:23:28;2.80;99.90
4081;DHT22;2055;50.074;8.436;2023-03-04T06:25:55;3.20;99.90
4081;DHT22;2055;50.074;8.436;2023-03-04T06:28:20;2.80;99.90
4081;DHT22;2055;50.074;8.436;2023-03-04T06:30:46;2.90;99.90
4081;DHT22;2055;50.074;8.436;2023-03-04T06:33:11;2.90;99.90
4081;DHT22;2055;50.074;8.436;2023-03-04T06:35:37;2.90;99.90
4081;DHT22;2055;50.074;8.436;2023-03-04T06:38:03;2.90;99.90
4081;DHT22;2055;50.074;8.436;2023-03-04T06:40:28;2.90;99.90
4081;DHT22;2055;50.074;8.436;2023-03-04T06:42:53;2.90;99.90
4081;DHT22;2055;50.074;8.436;2023-03-04T06:45:19;2.90;99.90
4081;DHT22;2055;50.074;8.436;2023-03-04T06:47:45;3.00;99.90
4081;DHT22;2055;50.074;8.436;2023-03-04T06:50:11;3.10;99.90
4081;DHT22;2055;50.074;8.436;2023-03-04T06:52:37;3.00;99.90
4081;DHT22;2055;50.074;8.436;2023-03-04T06:55:03;3.10;99.90
4081;DHT22;2055;50.074;8.436;2023-03-04T06:57:29;3.20;99.90
4081;DHT22;2055;50.074;8.436;2023-03-04T06:59:55;3.20;99.90
4081;DHT22;2055;50.074;8.436;2023-03-04T07:02:20;3.20;99.90
4081;DHT22;2055;50.074;8.436;2023-03-04T07:04:46;3.20;99.90
4081;DHT22;2055;50.074;8.436;2023-03-04T07:07:12;3.20;99.90
4081;DHT22;2055;50.074;8.436;2023-03-04T07:09:37;3.30;99.90
4081;DHT22;2055;50.074;8.436;2023-03-04T07:12:03;3.30;99.90
4081;DHT22;2055;50.074;8.436;2023-03-04T07:14:29;3.40;99.90
4081;DHT22;2055;50.074;8.436;2023-03-04T07:16:54;3.40;99.90
4081;DHT22;2055;50.074;8.436;2023-03-04T07:19:20;3.40;99.90
4081;DHT22;2055;50.074;8.436;2023-03-04T07:21:46;3.70;99.90
4081;DHT22;2055;50.074;8.436;2023-03-04T07:24:11;3.40;99.90
4081;DHT22;2055;50.074;8.436;2023-03-04T07:26:37;3.50;99.90
4081;DHT22;2055;50.074;8.436;2023-03-04T07:29:04;3.60;99.90
4081;DHT22;2055;50.074;8.436;2023-03-04T07:31:31;3.60;99.90
4081;DHT22;2055;50.074;8.436;2023-03-04T07:33:59;3.60;99.90
4081;DHT22;2055;50.074;8.436;2023-03-04T07:36:25;3.60;99.90
4081;DHT22;2055;50.074;8.436;2023-03-04T07:38:51;3.60;99.90
4081;DHT22;2055;50.074;8.436;2023-03-04T07:41:19;3.70;99.90
4081;DHT22;2055;50.074;8.436;2023-03-04T07:43:45;3.70;99.90
4081;DHT22;2055;50.074;8.436;2023-03-04T07:46:11;4.00;99.90
4081;DHT22;2055;50.074;8.436;2023-03-04T07:48:37;3.80;99.90
4081;DHT22;2055;50.074;8.436;2023-03-04T07:51:11;3.80;99.90
4081;DHT22;2055;50.074;8.436;2023-03-04T07:53:38;3.90;99.90
4081;DHT22;2055;50.074;8.436;2023-03-04T07:56:04;3.90;99.90
4081;DHT22;2055;50.074;8.436;2023-03-04T07:58:30;4.00;99.90
4081;DHT22;2055;50.074;8.436;2023-03-04T08:00:56;4.10;99.90
4081;DHT22;2055;50.074;8.436;2023-03-04T08:03:22;4.20;99.90
4081;DHT22;2055;50.074;8.436;2023-03-04T08:05:48;4.30;99.90
4081;DHT22;2055;50.074;8.436;2023-03-04T08:08:13;4.20;99.90
4081;DHT22;2055;50.074;8.436;2023-03-04T08:10:39;4.40;99.90
4081;DHT22;2055;50.074;8.436;2023-03-04T08:13:06;4.30;99.90
4081;DHT22;2055;50.074;8.436;2023-03-04T08:15:31;4.30;99.90
4081;DHT22;2055;50.074;8.436;2023-03-04T08:18:00;4.30;99.90
4081;DHT22;2055;50.074;8.436;2023-03-04T08:20:26;4.40;99.90
4081;DHT22;2055;50.074;8.436;2023-03-04T08:22:51;4.40;99.90
4081;DHT22;2055;50.074;8.436;2023-03-04T08:25:17;4.40;99.90
4081;DHT22;2055;50.074;8.436;2023-03-04T08:27:42;4.50;99.90
4081;DHT22;2055;50.074;8.436;2023-03-04T08:30:09;4.60;99.90
4081;DHT22;2055;50.074;8.436;2023-03-04T08:32:35;4.50;99.90
4081;DHT22;2055;50.074;8.436;2023-03-04T08:35:00;4.60;99.90
4081;DHT22;2055;50.074;8.436;2023-03-04T08:37:28;4.70;99.90
4081;DHT22;2055;50.074;8.436;2023-03-04T08:39:53;4.70;99.90
4081;DHT22;2055;50.074;8.436;2023-03-04T08:42:19;4.60;99.90
4081;DHT22;2055;50.074;8.436;2023-03-04T08:44:44;4.60;99.90
4081;DHT22;2055;50.074;8.436;2023-03-04T08:47:10;4.60;99.90
4081;DHT22;2055;50.074;8.436;2023-03-04T08:49:36;4.60;99.90
4081;DHT22;2055;50.074;8.436;2023-03-04T08:52:02;4.70;99.90
4081;DHT22;2055;50.074;8.436;2023-03-04T08:54:28;4.70;99.90
4081;DHT22;2055;50.074;8.436;2023-03-04T08:56:53;5.10;99.90
4081;DHT22;2055;50.074;8.436;2023-03-04T08:59:19;4.80;99.90
4081;DHT22;2055;50.074;8.436;2023-03-04T09:01:44;4.80;99.90
4081;DHT22;2055;50.074;8.436;2023-03-04T09:04:10;4.90;99.90
4081;DHT22;2055;50.074;8.436;2023-03-04T09:06:36;4.90;99.90
4081;DHT22;2055;50.074;8.436;2023-03-04T09:09:02;5.00;99.90
4081;DHT22;2055;50.074;8.436;2023-03-04T09:11:27;5.10;99.90
4081;DHT22;2055;50.074;8.436;2023-03-04T09:13:53;5.20;99.90
4081;DHT22;2055;50.074;8.436;2023-03-04T09:16:18;5.10;99.90
4081;DHT22;2055;50.074;8.436;2023-03-04T09:18:44;5.10;99.90
4081;DHT22;2055;50.074;8.436;2023-03-04T09:21:10;5.00;99.90
4081;DHT22;2055;50.074;8.436;2023-03-04T09:23:36;5.10;99.90
4081;DHT22;2055;50.074;8.436;2023-03-04T09:26:22;5.10;99.90
4081;DHT22;2055;50.074;8.436;2023-03-04T09:28:51;5.30;99.90
4081;DHT22;2055;50.074;8.436;2023-03-04T09:31:17;5.20;99.90
4081;DHT22;2055;50.074;8.436;2023-03-04T09:33:43;5.20;99.90
4081;DHT22;2055;50.074;8.436;2023-03-04T09:36:11;5.20;99.90
4081;DHT22;2055;50.074;8.436;2023-03-04T09:38:37;5.40;99.90
4081;DHT22;2055;50.074;8.436;2023-03-04T09:41:06;5.50;99.90
4081;DHT22;2055;50.074;8.436;2023-03-04T09:43:32;5.50;99.90
4081;DHT22;2055;50.074;8.436;2023-03-04T09:46:11;5.50;99.90
4081;DHT22;2055;50.074;8.436;2023-03-04T09:48:43;5.50;99.90
4081;DHT22;2055;50.074;8.436;2023-03-04T09:51:36;5.30;99.90
4081;DHT22;2055;50.074;8.436;2023-03-04T09:56:50;5.50;99.90
4081;DHT22;2055;50.074;8.436;2023-03-04T09:59:29;5.50;99.90
4081;DHT22;2055;50.074;8.436;2023-03-04T10:01:58;5.50;99.90
4081;DHT22;2055;50.074;8.436;2023-03-04T10:04:48;5.50;99.90
4081;DHT22;2055;50.074;8.436;2023-03-04T10:07:25;5.40;99.90
4081;DHT22;2055;50.074;8.436;2023-03-04T10:10:41;5.40;99.90
4081;DHT22;2055;50.074;8.436;2023-03-04T10:12:50;5.30;99.90
4081;DHT22;2055;50.074;8.436;2023-03-04T10:15:22;5.50;99.90
4081;DHT22;2055;50.074;8.436;2023-03-04T10:17:53;5.60;99.90
4081;DHT22;2055;50.074;8.436;2023-03-04T10:20:25;5.70;99.90
4081;DHT22;2055;50.074;8.436;2023-03-04T10:22:59;5.70;99.90
4081;DHT22;2055;50.074;8.436;2023-03-04T10:25:29;5.60;99.90
4081;DHT22;2055;50.074;8.436;2023-03-04T10:28:01;5.60;99.90
4081;DHT22;2055;50.074;8.436;2023-03-04T10:30:49;5.30;99.90
4081;DHT22;2055;50.074;8.436;2023-03-04T10:33:24;5.40;99.90
4081;DHT22;2055;50.074;8.436;2023-03-04T10:36:03;5.50;99.90
4081;DHT22;2055;50.074;8.436;2023-03-04T10:38:31;5.50;99.90
4081;DHT22;2055;50.074;8.436;2023-03-04T10:40:57;5.50;99.90
4081;DHT22;2055;50.074;8.436;2023-03-04T10:43:23;5.40;99.90
4081;DHT22;2055;50.074;8.436;2023-03-04T10:45:54;5.40;99.90
4081;DHT22;2055;50.074;8.436;2023-03-04T10:48:23;5.60;99.90
4081;DHT22;2055;50.074;8.436;2023-03-04T10:50:49;5.70;99.90
4081;DHT22;2055;50.074;8.436;2023-03-04T10:53:24;5.90;99.90
4081;DHT22;2055;50.074;8.436;2023-03-04T10:55:52;6.00;99.90
4081;DHT22;2055;50.074;8.436;2023-03-04T10:58:17;5.90;99.90
4081;DHT22;2055;50.074;8.436;2023-03-04T11:01:04;6.00;99.90
4081;DHT22;2055;50.074;8.436;2023-03-04T11:03:33;5.80;99.90
4081;DHT22;2055;50.074;8.436;2023-03-04T11:06:20;5.80;99.90
4081;DHT22;2055;50.074;8.436;2023-03-04T11:08:57;5.90;99.90
4081;DHT22;2055;50.074;8.436;2023-03-04T11:11:36;6.00;99.90
4081;DHT22;2055;50.074;8.436;2023-03-04T11:16:53;6.10;99.90
4081;DHT22;2055;50.074;8.436;2023-03-04T11:19:21;6.10;99.90
4081;DHT22;2055;50.074;8.436;2023-03-04T11:21:48;6.00;99.90
4081;DHT22;2055;50.074;8.436;2023-03-04T11:24:23;6.00;99.90
4081;DHT22;2055;50.074;8.436;2023-03-04T11:27:17;6.10;99.90
4081;DHT22;2055;50.074;8.436;2023-03-04T11:29:51;5.80;99.90
4081;DHT22;2055;50.074;8.436;2023-03-04T11:32:33;6.00;99.90
4081;DHT22;2055;50.074;8.436;2023-03-04T11:35:23;6.20;99.90
4081;DHT22;2055;50.074;8.436;2023-03-04T11:38:03;6.20;99.90
4081;DHT22;2055;50.074;8.436;2023-03-04T11:40:42;6.10;99.90
4081;DHT22;2055;50.074;8.436;2023-03-04T11:46:01;6.20;99.90
4081;DHT22;2055;50.074;8.436;2023-03-04T11:51:18;6.20;99.90
4081;DHT22;2055;50.074;8.436;2023-03-04T11:56:36;5.90;99.90
4081;DHT22;2055;50.074;8.436;2023-03-04T12:15:31;6.40;99.90
4081;DHT22;2055;50.074;8.436;2023-03-04T12:18:27;6.40;99.90
4081;DHT22;2055;50.074;8.436;2023-03-04T12:21:21;6.40;99.90
4081;DHT22;2055;50.074;8.436;2023-03-04T12:26:37;6.50;99.90
4081;DHT22;2055;50.074;8.436;2023-03-04T12:31:42;6.60;99.90
4081;DHT22;2055;50.074;8.436;2023-03-04T12:42:16;7.10;99.90
4081;DHT22;2055;50.074;8.436;2023-03-04T12:47:49;7.30;99.90
4081;DHT22;2055;50.074;8.436;2023-03-04T12:50:32;7.50;99.90
4081;DHT22;2055;50.074;8.436;2023-03-04T12:53:17;7.90;99.90
4081;DHT22;2055;50.074;8.436;2023-03-04T12:55:46;7.90;99.90
4081;DHT22;2055;50.074;8.436;2023-03-04T12:58:20;8.10;99.90
4081;DHT22;2055;50.074;8.436;2023-03-04T13:01:10;7.90;99.90
4081;DHT22;2055;50.074;8.436;2023-03-04T13:03:50;7.50;99.90
4081;DHT22;2055;50.074;8.436;2023-03-04T13:06:34;7.60;99.90
4081;DHT22;2055;50.074;8.436;2023-03-04T13:09:27;8.10;99.90
4081;DHT22;2055;50.074;8.436;2023-03-04T13:12:15;8.40;99.90
4081;DHT22;2055;50.074;8.436;2023-03-04T13:17:52;8.40;99.90
4081;DHT22;2055;50.074;8.436;2023-03-04T13:25:48;7.50;99.90
4081;DHT22;2055;50.074;8.436;2023-03-04T13:35:47;7.30;99.90
4081;DHT22;2055;50.074;8.436;2023-03-04T13:41:15;7.30;99.90
4081;DHT22;2055;50.074;8.436;2023-03-04T13:43:43;7.50;99.90
4081;DHT22;2055;50.074;8.436;2023-03-04T13:59:11;7.50;99.90
4081;DHT22;2055;50.074;8.436;2023-03-04T14:04:27;7.30;99.90
4081;DHT22;2055;50.074;8.436;2023-03-04T14:06:56;7.40;99.90
4081;DHT22;2055;50.074;8.436;2023-03-04T14:09:33;7.50;99.90
4081;DHT22;2055;50.074;8.436;2023-03-04T14:12:04;7.30;99.90
4081;DHT22;2055;50.074;8.436;2023-03-04T14:14:52;7.40;99.90
4081;DHT22;2055;50.074;8.436;2023-03-04T14:17:21;7.60;99.90
4081;DHT22;2055;50.074;8.436;2023-03-04T14:19:48;7.60;99.90
4081;DHT22;2055;50.074;8.436;2023-03-04T14:27:33;7.20;99.90
4081;DHT22;2055;50.074;8.436;2023-03-04T14:30:03;7.20;99.90
4081;DHT22;2055;50.074;8.436;2023-03-04T14:32:29;7.20;99.90
4081;DHT22;2055;50.074;8.436;2023-03-04T14:35:01;7.20;99.90
4081;DHT22;2055;50.074;8.436;2023-03-04T14:37:36;7.20;99.90
4081;DHT22;2055;50.074;8.436;2023-03-04T14:40:05;7.40;99.90
4081;DHT22;2055;50.074;8.436;2023-03-04T14:42:38;7.50;99.90
4081;DHT22;2055;50.074;8.436;2023-03-04T14:45:08;8.20;99.90
4081;DHT22;2055;50.074;8.436;2023-03-04T14:47:39;7.20;99.90
4081;DHT22;2055;50.074;8.436;2023-03-04T14:50:10;7.10;99.90
4081;DHT22;2055;50.074;8.436;2023-03-04T14:52:40;7.10;99.90
4081;DHT22;2055;50.074;8.436;2023-03-04T14:55:24;6.90;99.90
4081;DHT22;2055;50.074;8.436;2023-03-04T14:58:15;6.90;99.90
4081;DHT22;2055;50.074;8.436;2023-03-04T15:00:42;6.90;99.90
4081;DHT22;2055;50.074;8.436;2023-03-04T15:03:24;7.00;99.90
4081;DHT22;2055;50.074;8.436;2023-03-04T15:05:52;7.00;99.90
4081;DHT22;2055;50.074;8.436;2023-03-04T15:08:23;6.90;99.90
4081;DHT22;2055;50.074;8.436;2023-03-04T15:11:00;6.80;99.90
4081;DHT22;2055;50.074;8.436;2023-03-04T15:13:49;6.80;99.90
4081;DHT22;2055;50.074;8.436;2023-03-04T15:16:17;6.80;99.90
4081;DHT22;2055;50.074;8.436;2023-03-04T15:18:58;6.90;99.90
4081;DHT22;2055;50.074;8.436;2023-03-04T15:21:29;6.90;99.90
4081;DHT22;2055;50.074;8.436;2023-03-04T15:23:54;6.90;99.90
4081;DHT22;2055;50.074;8.436;2023-03-04T15:26:20;6.90;99.90
4081;DHT22;2055;50.074;8.436;2023-03-04T15:28:45;6.90;99.90
4081;DHT22;2055;50.074;8.436;2023-03-04T15:31:19;6.80;99.90
4081;DHT22;2055;50.074;8.436;2023-03-04T15:33:46;6.80;99.90
4081;DHT22;2055;50.074;8.436;2023-03-04T15:36:14;6.80;99.90
4081;DHT22;2055;50.074;8.436;2023-03-04T15:38:46;6.80;99.90
4081;DHT22;2055;50.074;8.436;2023-03-04T15:41:17;6.80;99.90
4081;DHT22;2055;50.074;8.436;2023-03-04T15:43:43;6.80;99.90
4081;DHT22;2055;50.074;8.436;2023-03-04T15:46:10;6.80;99.90
4081;DHT22;2055;50.074;8.436;2023-03-04T15:48:36;6.90;99.90
4081;DHT22;2055;50.074;8.436;2023-03-04T15:51:02;6.80;99.90
4081;DHT22;2055;50.074;8.436;2023-03-04T15:53:34;6.80;99.90
4081;DHT22;2055;50.074;8.436;2023-03-04T15:56:02;6.80;99.90
4081;DHT22;2055;50.074;8.436;2023-03-04T15:58:28;6.80;99.90
4081;DHT22;2055;50.074;8.436;2023-03-04T16:00:54;6.80;99.90
4081;DHT22;2055;50.074;8.436;2023-03-04T16:03:20;6.80;99.90
4081;DHT22;2055;50.074;8.436;2023-03-04T16:05:48;6.80;99.90
4081;DHT22;2055;50.074;8.436;2023-03-04T16:08:16;6.80;99.90
4081;DHT22;2055;50.074;8.436;2023-03-04T16:10:43;6.80;99.90
4081;DHT22;2055;50.074;8.436;2023-03-04T16:13:13;6.70;99.90
4081;DHT22;2055;50.074;8.436;2023-03-04T16:15:39;6.70;99.90
4081;DHT22;2055;50.074;8.436;2023-03-04T16:18:05;6.70;99.90
4081;DHT22;2055;50.074;8.436;2023-03-04T16:20:32;6.70;99.90
4081;DHT22;2055;50.074;8.436;2023-03-04T16:22:59;6.70;99.90
4081;DHT22;2055;50.074;8.436;2023-03-04T16:25:26;6.70;99.90
4081;DHT22;2055;50.074;8.436;2023-03-04T16:27:53;6.60;99.90
4081;DHT22;2055;50.074;8.436;2023-03-04T16:30:23;6.60;99.90
4081;DHT22;2055;50.074;8.436;2023-03-04T16:32:49;6.60;99.90
4081;DHT22;2055;50.074;8.436;2023-03-04T16:35:16;6.60;99.90
4081;DHT22;2055;50.074;8.436;2023-03-04T16:37:42;6.50;99.90
4081;DHT22;2055;50.074;8.436;2023-03-04T16:40:15;6.80;99.90
4081;DHT22;2055;50.074;8.436;2023-03-04T16:42:41;6.50;99.90
4081;DHT22;2055;50.074;8.436;2023-03-04T16:45:18;6.50;99.90
4081;DHT22;2055;50.074;8.436;2023-03-04T16:47:44;6.50;99.90
4081;DHT22;2055;50.074;8.436;2023-03-04T16:50:14;6.50;99.90
4081;DHT22;2055;50.074;8.436;2023-03-04T16:52:43;6.40;99.90
4081;DHT22;2055;50.074;8.436;2023-03-04T16:55:18;6.40;99.90
4081;DHT22;2055;50.074;8.436;2023-03-04T16:57:44;6.40;99.90
4081;DHT22;2055;50.074;8.436;2023-03-04T17:00:11;6.40;99.90
4081;DHT22;2055;50.074;8.436;2023-03-04T17:02:37;6.40;99.90
4081;DHT22;2055;50.074;8.436;2023-03-04T17:05:03;6.40;99.90
4081;DHT22;2055;50.074;8.436;2023-03-04T17:07:29;6.30;99.90
4081;DHT22;2055;50.074;8.436;2023-03-04T17:09:54;6.30;99.90
4081;DHT22;2055;50.074;8.436;2023-03-04T17:12:20;6.30;99.90
4081;DHT22;2055;50.074;8.436;2023-03-04T17:14:45;6.30;99.90
4081;DHT22;2055;50.074;8.436;2023-03-04T17:17:11;6.30;99.90
4081;DHT22;2055;50.074;8.436;2023-03-04T17:19:37;6.20;99.90
4081;DHT22;2055;50.074;8.436;2023-03-04T17:22:02;6.20;99.90
4081;DHT22;2055;50.074;8.436;2023-03-04T17:24:28;6.20;99.90
4081;DHT22;2055;50.074;8.436;2023-03-04T17:26:54;6.20;99.90
4081;DHT22;2055;50.074;8.436;2023-03-04T17:29:20;6.20;99.90
4081;DHT22;2055;50.074;8.436;2023-03-04T17:31:46;6.20;99.90
4081;DHT22;2055;50.074;8.436;2023-03-04T17:34:11;6.20;99.90
4081;DHT22;2055;50.074;8.436;2023-03-04T17:36:38;6.20;99.90
4081;DHT22;2055;50.074;8.436;2023-03-04T17:39:04;6.20;99.90
4081;DHT22;2055;50.074;8.436;2023-03-04T17:41:30;6.20;99.90
4081;DHT22;2055;50.074;8.436;2023-03-04T17:43:55;6.20;99.90
4081;DHT22;2055;50.074;8.436;2023-03-04T17:46:26;6.20;99.90
4081;DHT22;2055;50.074;8.436;2023-03-04T17:48:54;6.20;99.90
4081;DHT22;2055;50.074;8.436;2023-03-04T17:51:27;6.20;99.90
4081;DHT22;2055;50.074;8.436;2023-03-04T17:53:53;6.10;99.90
4081;DHT22;2055;50.074;8.436;2023-03-04T17:56:18;6.10;99.90